Time;durP1;ratioP1;P1;durP2;ratioP2;P2;SDS_P1;SDS_P2;PMS_P1;PMS_P2;Temp;Humidity;BMP_temperature;BMP_pressure;BME280_temperature;BME280_humidity;BME280_pressure;Samples;Min_cycle;Max_cycle;Signal;HPM_P1;HPM_P2
2021/07/22 00:01:49;;;;;;;10.00;7.50;;;20.10;99.90;;;;;;4954539;29;20237;-63
2021/07/22 00:04:14;;;;;;;7.47;6.77;;;20.10;99.90;;;;;;4953832;29;20265;-63
2021/07/22 00:06:40;;;;;;;8.03;6.53;;;20.10;99.90;;;;;;4954602;29;20170;-63
2021/07/22 00:09:05;;;;;;;8.10;7.30;;;19.90;99.90;;;;;;4955085;29;20167;-63
2021/07/22 00:11:32;;;;;;;8.90;7.43;;;20.00;99.90;;;;;;4953518;29;20229;-63
2021/07/22 00:13:57;;;;;;;8.57;7.73;;;19.90;99.90;;;;;;4954826;29;20174;-63
2021/07/22 00:16:23;;;;;;;8.53;7.43;;;19.90;99.90;;;;;;4954887;29;20942;-62
2021/07/22 00:18:49;;;;;;;8.70;7.53;;;19.80;99.90;;;;;;4955081;29;20182;-63
2021/07/22 00:21:14;;;;;;;8.10;7.23;;;19.90;99.90;;;;;;4953458;29;20185;-63
2021/07/22 00:23:40;;;;;;;8.63;7.83;;;19.90;99.90;;;;;;4954807;29;20190;-63
2021/07/22 00:26:06;;;;;;;7.70;7.00;;;19.90;99.90;;;;;;4954899;29;20170;-63
2021/07/22 00:28:31;;;;;;;11.27;8.10;;;19.90;99.90;;;;;;4953243;29;20178;-63
2021/07/22 00:30:57;;;;;;;9.10;8.20;;;19.90;99.90;;;;;;4954985;29;20226;-63
2021/07/22 00:33:23;;;;;;;8.73;7.37;;;19.90;99.90;;;;;;4957557;28;20201;-63
2021/07/22 00:35:49;;;;;;;8.63;7.03;;;19.90;99.90;;;;;;4958397;29;20413;-63
2021/07/22 00:38:15;;;;;;;9.40;8.47;;;19.80;99.90;;;;;;4958380;29;20185;-62
2021/07/22 00:40:45;;;;;;;9.10;8.30;;;19.80;99.90;;;;;;4958925;29;20189;-63
2021/07/22 00:43:11;;;;;;;9.57;8.47;;;19.80;99.90;;;;;;4956850;29;20456;-62
2021/07/22 00:45:36;;;;;;;10.20;8.60;;;19.60;99.90;;;;;;4957136;29;20513;-62
2021/07/22 00:48:02;;;;;;;8.80;7.97;;;19.60;99.90;;;;;;4958179;29;20173;-62
2021/07/22 00:50:29;;;;;;;11.40;8.90;;;19.70;99.90;;;;;;4957681;29;20249;-63
2021/07/22 00:52:55;;;;;;;10.93;7.70;;;19.70;99.90;;;;;;4958335;29;20190;-63
2021/07/22 00:55:26;;;;;;;9.20;8.30;;;19.50;99.90;;;;;;4957943;29;20440;-63
2021/07/22 00:57:52;;;;;;;10.30;7.87;;;19.40;99.90;;;;;;4956696;28;20433;-63
2021/07/22 01:00:18;;;;;;;10.43;8.47;;;19.30;99.90;;;;;;4957477;29;20409;-63
2021/07/22 01:02:43;;;;;;;9.93;8.90;;;19.40;99.90;;;;;;4957571;29;20832;-63
2021/07/22 01:05:09;;;;;;;9.47;8.23;;;19.40;99.90;;;;;;4957887;29;20174;-63
2021/07/22 01:07:36;;;;;;;8.90;8.10;;;19.40;99.90;;;;;;4957917;29;20251;-63
2021/07/22 01:10:02;;;;;;;9.30;7.63;;;19.50;99.90;;;;;;4957867;29;20420;-63
2021/07/22 01:12:27;;;;;;;9.53;8.47;;;19.50;99.90;;;;;;4956151;29;20946;-63
2021/07/22 01:14:53;;;;;;;8.63;7.73;;;19.50;99.90;;;;;;4957673;29;20409;-62
2021/07/22 01:17:51;;;;;;;12.00;8.67;;;19.40;99.90;;;;;;4957493;29;20175;-62
2021/07/22 01:20:18;;;;;;;9.47;8.47;;;19.40;99.90;;;;;;4955769;29;20248;-63
2021/07/22 01:22:49;;;;;;;14.13;8.70;;;19.30;99.90;;;;;;4957403;29;20461;-63
2021/07/22 01:25:16;;;;;;;9.37;8.47;;;19.20;99.90;;;;;;4957301;29;20410;-63
2021/07/22 01:27:42;;;;;;;10.20;8.83;;;19.10;99.90;;;;;;4956340;29;20425;-63
2021/07/22 01:30:10;;;;;;;10.67;8.37;;;19.10;99.90;;;;;;4957561;29;20409;-63
2021/07/22 01:32:36;;;;;;;9.37;8.40;;;19.10;99.90;;;;;;4956392;29;20421;-64
2021/07/22 01:35:02;;;;;;;9.20;8.30;;;19.30;99.90;;;;;;4956977;29;20410;-63
2021/07/22 01:37:27;;;;;;;11.63;8.90;;;19.30;99.90;;;;;;4957116;29;20220;-63
2021/07/22 01:39:53;;;;;;;9.33;8.40;;;19.30;99.90;;;;;;4958151;28;20202;-63
2021/07/22 01:42:19;;;;;;;9.50;8.20;;;19.30;99.90;;;;;;4958362;28;20741;-63
2021/07/22 01:44:44;;;;;;;9.70;8.70;;;19.20;99.90;;;;;;4954587;28;20170;-63
2021/07/22 01:47:10;;;;;;;10.20;8.40;;;19.30;99.90;;;;;;4954372;29;20205;-63
2021/07/22 01:49:36;;;;;;;10.93;9.70;;;19.30;99.90;;;;;;4957246;29;20250;-63
2021/07/22 01:52:03;;;;;;;10.70;9.60;;;19.30;99.90;;;;;;4956948;29;20604;-62
2021/07/22 01:54:29;;;;;;;10.17;8.83;;;19.30;99.90;;;;;;4955797;29;20182;-61
2021/07/22 01:56:58;;;;;;;9.33;8.43;;;19.20;99.90;;;;;;4957009;29;20457;-61
2021/07/22 01:59:25;;;;;;;9.30;8.30;;;19.10;99.90;;;;;;4956971;29;20257;-63
2021/07/22 02:01:51;;;;;;;11.40;9.93;;;19.10;99.90;;;;;;4956484;29;20484;-63
2021/07/22 02:04:16;;;;;;;10.50;8.53;;;19.10;99.90;;;;;;4955182;29;20425;-63
2021/07/22 02:06:42;;;;;;;9.70;8.70;;;19.10;99.90;;;;;;4956825;29;20530;-63
2021/07/22 02:09:07;;;;;;;12.60;9.73;;;19.10;99.90;;;;;;4956703;29;20260;-63
2021/07/22 02:11:33;;;;;;;9.83;8.93;;;19.00;99.90;;;;;;4956348;29;20189;-63
2021/07/22 02:13:59;;;;;;;9.53;8.00;;;18.90;99.90;;;;;;4956347;29;20228;-63
2021/07/22 02:16:24;;;;;;;10.20;9.20;;;19.00;99.90;;;;;;4956424;29;20527;-63
2021/07/22 02:18:50;;;;;;;10.10;9.17;;;19.00;99.90;;;;;;4955117;29;20229;-63
2021/07/22 02:21:16;;;;;;;10.27;9.17;;;19.00;99.90;;;;;;4955997;29;20270;-63
2021/07/22 02:23:42;;;;;;;9.13;8.33;;;18.90;99.90;;;;;;4956193;29;20178;-63
2021/07/22 02:26:08;;;;;;;8.70;7.80;;;18.90;99.90;;;;;;4956444;29;20477;-63
2021/07/22 02:28:35;;;;;;;8.80;8.00;;;18.80;99.90;;;;;;4954927;29;20662;-63
2021/07/22 02:31:01;;;;;;;9.50;8.50;;;18.70;99.90;;;;;;4956053;29;20497;-63
2021/07/22 02:33:27;;;;;;;10.27;8.63;;;18.70;99.90;;;;;;4954135;29;20453;-63
2021/07/22 02:35:52;;;;;;;9.30;8.40;;;18.70;99.90;;;;;;4956010;29;20934;-63
2021/07/22 02:38:18;;;;;;;13.83;9.30;;;18.70;99.90;;;;;;4956271;29;20507;-63
2021/07/22 02:40:44;;;;;;;10.37;9.20;;;18.50;99.90;;;;;;4955941;29;20209;-63
2021/07/22 02:43:11;;;;;;;11.00;9.40;;;18.40;99.90;;;;;;4956132;29;20190;-63
2021/07/22 02:45:37;;;;;;;13.83;9.87;;;18.40;99.90;;;;;;4956249;29;20201;-63
2021/07/22 02:48:06;;;;;;;10.33;9.33;;;18.40;99.90;;;;;;4955689;29;20841;-63
2021/07/22 02:50:33;;;;;;;13.70;10.10;;;18.40;99.90;;;;;;4955236;29;20448;-63
2021/07/22 02:53:02;;;;;;;10.83;9.80;;;18.30;99.90;;;;;;4955697;29;20468;-63
2021/07/22 02:55:28;;;;;;;11.10;9.90;;;18.20;99.90;;;;;;4955379;28;20402;-63
2021/07/22 02:57:54;;;;;;;10.43;9.40;;;18.10;99.90;;;;;;4955869;29;20449;-63
2021/07/22 03:00:19;;;;;;;9.43;8.53;;;18.10;99.90;;;;;;4955675;29;20635;-63
2021/07/22 03:02:45;;;;;;;11.83;10.43;;;18.10;99.90;;;;;;4953314;29;20300;-63
2021/07/22 03:05:11;;;;;;;10.17;9.07;;;18.20;99.90;;;;;;4957470;28;20546;-62
2021/07/22 03:07:36;;;;;;;10.83;9.50;;;18.20;99.90;;;;;;4955196;29;20501;-63
2021/07/22 03:10:02;;;;;;;9.93;9.03;;;18.20;99.90;;;;;;4955713;29;20174;-61
2021/07/22 03:12:28;;;;;;;10.97;9.80;;;18.30;99.90;;;;;;4954411;29;20206;-60
2021/07/22 03:14:54;;;;;;;11.77;10.60;;;18.40;99.90;;;;;;4954334;29;20421;-61
2021/07/22 03:17:19;;;;;;;10.67;9.60;;;18.40;99.90;;;;;;4955046;29;20186;-61
2021/07/22 03:19:45;;;;;;;10.10;9.10;;;18.30;99.90;;;;;;4955294;29;20162;-62
2021/07/22 03:22:10;;;;;;;11.30;10.20;;;18.30;99.90;;;;;;4955239;29;20194;-62
2021/07/22 03:24:36;;;;;;;9.90;8.70;;;18.20;99.90;;;;;;4953839;29;20178;-61
2021/07/22 03:27:02;;;;;;;10.00;9.10;;;18.20;99.90;;;;;;4955462;29;20224;-61
2021/07/22 03:29:27;;;;;;;11.60;10.30;;;18.20;99.90;;;;;;4955464;29;20218;-61
2021/07/22 03:31:53;;;;;;;10.50;9.50;;;18.20;99.90;;;;;;4954537;29;20201;-61
2021/07/22 03:34:18;;;;;;;10.60;9.33;;;18.10;99.90;;;;;;4955427;29;20170;-61
2021/07/22 03:36:45;;;;;;;12.10;10.30;;;18.00;99.90;;;;;;4955063;29;20180;-61
2021/07/22 03:39:14;;;;;;;12.97;9.60;;;18.00;99.90;;;;;;4953584;29;20193;-61
2021/07/22 03:41:47;;;;;;;9.80;8.83;;;18.10;99.90;;;;;;4957537;28;20793;-61
2021/07/22 03:44:13;;;;;;;10.73;9.67;;;18.10;99.90;;;;;;4955286;29;20820;-61
2021/07/22 03:46:39;;;;;;;9.40;8.50;;;18.00;99.90;;;;;;4953751;29;20457;-61
2021/07/22 03:49:05;;;;;;;11.40;10.23;;;18.00;99.90;;;;;;4954966;29;20406;-61
2021/07/22 03:51:30;;;;;;;10.03;9.13;;;18.10;99.90;;;;;;4954304;29;20208;-60
2021/07/22 03:53:56;;;;;;;13.00;10.30;;;18.10;99.90;;;;;;4955034;29;20205;-62
2021/07/22 03:56:21;;;;;;;14.63;10.70;;;18.10;99.90;;;;;;4954003;29;20162;-62
2021/07/22 03:58:47;;;;;;;10.30;9.20;;;18.10;99.90;;;;;;4955124;29;20170;-62
2021/07/22 04:01:13;;;;;;;12.00;9.07;;;18.10;99.90;;;;;;4954871;29;20163;-63
2021/07/22 04:03:38;;;;;;;9.80;8.57;;;18.20;99.90;;;;;;4955450;29;20166;-62
2021/07/22 04:06:04;;;;;;;9.53;8.27;;;18.30;99.90;;;;;;4954830;29;20170;-63
2021/07/22 04:08:30;;;;;;;10.67;8.17;;;18.30;99.90;;;;;;4957635;28;20710;-62
2021/07/22 04:10:56;;;;;;;10.93;9.70;;;18.30;99.90;;;;;;4957923;29;20174;-61
2021/07/22 04:13:21;;;;;;;11.90;10.40;;;18.30;99.90;;;;;;4958786;29;20592;-61
2021/07/22 04:15:47;;;;;;;10.80;9.30;;;18.20;99.90;;;;;;4958800;29;20162;-62
2021/07/22 04:18:12;;;;;;;10.23;8.17;;;18.30;99.90;;;;;;4958530;29;20226;-62
2021/07/22 04:20:38;;;;;;;9.57;8.67;;;18.40;99.90;;;;;;4958769;29;20181;-62
2021/07/22 04:23:04;;;;;;;9.53;8.63;;;18.20;99.90;;;;;;4958148;29;20666;-61
2021/07/22 04:25:29;;;;;;;11.70;8.80;;;18.10;99.90;;;;;;4957194;29;20405;-61
2021/07/22 04:27:55;;;;;;;9.10;8.20;;;18.20;99.90;;;;;;4958380;29;20182;-62
2021/07/22 04:30:21;;;;;;;11.10;9.90;;;18.30;99.90;;;;;;4958354;29;20163;-62
2021/07/22 04:32:47;;;;;;;11.17;9.00;;;18.30;99.90;;;;;;4956963;29;20468;-61
2021/07/22 04:35:14;;;;;;;9.57;8.53;;;18.20;99.90;;;;;;4958216;29;20834;-62
2021/07/22 04:37:40;;;;;;;10.57;9.47;;;18.20;99.90;;;;;;4958163;29;20175;-63
2021/07/22 04:40:06;;;;;;;12.43;10.10;;;18.30;99.90;;;;;;4958232;29;20444;-63
2021/07/22 04:42:36;;;;;;;10.40;9.37;;;18.30;99.90;;;;;;4955548;29;20460;-63
2021/07/22 04:45:02;;;;;;;10.30;9.30;;;18.40;99.90;;;;;;4958244;29;20468;-63
2021/07/22 04:47:27;;;;;;;10.50;9.50;;;18.40;99.90;;;;;;4956975;29;20429;-63
2021/07/22 04:49:53;;;;;;;10.50;9.40;;;18.40;99.90;;;;;;4958174;29;20410;-62
2021/07/22 04:52:19;;;;;;;10.60;8.20;;;18.60;99.90;;;;;;4956802;29;20209;-61
2021/07/22 04:54:44;;;;;;;10.47;9.47;;;18.60;99.90;;;;;;4958156;29;20170;-61
2021/07/22 04:57:10;;;;;;;10.80;9.80;;;18.70;99.90;;;;;;4957957;29;20553;-60
2021/07/22 04:59:36;;;;;;;10.63;9.53;;;18.70;99.90;;;;;;4956491;29;20754;-63
2021/07/22 05:02:01;;;;;;;10.40;8.90;;;18.80;99.90;;;;;;4957765;29;20730;-62
2021/07/22 05:04:27;;;;;;;9.50;8.70;;;18.90;99.90;;;;;;4957860;29;20193;-62
2021/07/22 05:06:52;;;;;;;9.40;8.27;;;18.90;99.90;;;;;;4957508;29;20209;-62
2021/07/22 05:09:18;;;;;;;10.60;9.50;;;19.00;99.90;;;;;;4957885;29;20217;-61
2021/07/22 05:11:44;;;;;;;12.53;8.97;;;18.90;99.90;;;;;;4957665;29;20190;-60
2021/07/22 05:14:09;;;;;;;12.30;9.47;;;19.00;99.90;;;;;;4957400;29;20224;-61
2021/07/22 05:16:35;;;;;;;11.77;9.03;;;19.10;99.90;;;;;;4956632;29;20691;-60
2021/07/22 05:19:00;;;;;;;10.47;9.37;;;19.20;99.90;;;;;;4957541;28;20206;-60
2021/07/22 05:21:26;;;;;;;10.67;9.57;;;19.30;99.90;;;;;;4957676;29;20213;-60
2021/07/22 05:23:52;;;;;;;11.10;10.00;;;19.30;99.90;;;;;;4957488;29;20177;-61
2021/07/22 05:26:17;;;;;;;10.77;9.37;;;19.40;99.90;;;;;;4955467;29;20174;-61
2021/07/22 05:28:43;;;;;;;11.83;9.70;;;19.50;99.90;;;;;;4957013;29;20176;-61
2021/07/22 05:31:10;;;;;;;9.93;8.93;;;19.60;99.90;;;;;;4955766;29;20644;-61
2021/07/22 05:33:37;;;;;;;12.10;9.10;;;19.70;99.90;;;;;;4957443;29;20201;-61
2021/07/22 05:36:04;;;;;;;10.47;9.37;;;19.80;99.90;;;;;;4958155;29;20456;-60
2021/07/22 05:38:34;;;;;;;19.27;10.17;;;19.80;99.90;;;;;;4957544;28;20767;-61
2021/07/22 05:41:00;;;;;;;12.43;9.30;;;19.80;99.90;;;;;;4937862;29;20395;-61
2021/07/22 05:43:29;;;;;;;10.60;9.10;;;19.90;99.90;;;;;;4937890;29;20508;-61
2021/07/22 05:45:55;;;;;;;10.97;9.87;;;20.00;99.90;;;;;;4949966;29;20781;-61
2021/07/22 05:48:21;;;;;;;12.63;11.17;;;20.00;99.90;;;;;;4957471;29;20997;-60
2021/07/22 05:50:47;;;;;;;12.07;10.70;;;20.10;99.90;;;;;;4957078;29;20492;-61
2021/07/22 05:53:13;;;;;;;12.60;11.23;;;20.20;99.90;;;;;;4955683;29;20695;-60
2021/07/22 05:55:39;;;;;;;13.33;11.27;;;20.10;99.90;;;;;;4956174;29;20433;-60
2021/07/22 05:58:04;;;;;;;13.13;11.67;;;20.10;99.90;;;;;;4957091;28;20170;-62
2021/07/22 06:00:30;;;;;;;13.37;12.07;;;20.10;99.90;;;;;;4955946;28;20174;-61
2021/07/22 06:02:56;;;;;;;14.13;12.07;;;20.10;99.90;;;;;;4956206;29;20209;-61
2021/07/22 06:05:22;;;;;;;16.27;12.33;;;19.90;99.90;;;;;;4956878;29;20170;-62
2021/07/22 06:07:47;;;;;;;14.97;13.37;;;20.00;99.90;;;;;;4956940;29;20658;-61
2021/07/22 06:10:13;;;;;;;15.23;12.07;;;20.10;99.90;;;;;;4956841;29;20170;-61
2021/07/22 06:12:42;;;;;;;15.37;13.57;;;20.30;99.90;;;;;;4956371;29;20201;-61
2021/07/22 06:15:11;;;;;;;14.30;12.60;;;20.40;99.90;;;;;;4954918;29;20424;-61
2021/07/22 06:17:38;;;;;;;14.60;12.73;;;20.60;99.90;;;;;;4956315;29;20852;-61
2021/07/22 06:20:05;;;;;;;12.70;11.50;;;20.70;99.90;;;;;;4955467;29;20462;-61
2021/07/22 06:22:31;;;;;;;16.13;13.33;;;20.80;99.90;;;;;;4956509;29;20444;-61
2021/07/22 06:24:58;;;;;;;18.93;14.43;;;20.80;99.90;;;;;;4956209;29;20786;-61
2021/07/22 06:27:23;;;;;;;21.70;15.17;;;20.60;99.90;;;;;;4956760;29;20324;-61
2021/07/22 06:29:49;;;;;;;15.33;13.63;;;20.70;99.90;;;;;;4955514;28;20438;-63
2021/07/22 06:32:15;;;;;;;15.83;12.67;;;20.70;99.90;;;;;;4955410;29;20194;-63
2021/07/22 06:34:41;;;;;;;17.70;14.40;;;20.80;99.90;;;;;;4956579;29;20166;-62
2021/07/22 06:37:07;;;;;;;15.40;13.07;;;20.90;99.90;;;;;;4956445;29;20477;-62
2021/07/22 06:39:33;;;;;;;13.47;12.13;;;21.10;99.90;;;;;;4955246;29;20193;-62
2021/07/22 06:42:07;;;;;;;13.30;11.90;;;21.20;99.90;;;;;;4956637;29;20249;-62
2021/07/22 06:44:33;;;;;;;13.07;11.67;;;21.40;99.90;;;;;;4955310;29;20486;-62
2021/07/22 06:47:00;;;;;;;14.33;11.50;;;21.60;99.90;;;;;;4956203;29;20456;-61
2021/07/22 06:49:26;;;;;;;13.00;11.53;;;21.80;99.90;;;;;;4955609;29;20225;-61
2021/07/22 06:51:52;;;;;;;15.10;12.67;;;21.80;99.90;;;;;;4955065;29;20421;-63
2021/07/22 06:54:21;;;;;;;14.10;12.50;;;21.80;99.90;;;;;;4936425;29;20450;-61
2021/07/22 06:56:47;;;;;;;17.83;13.40;;;21.90;99.90;;;;;;4936478;29;20546;-62
2021/07/22 06:59:13;;;;;;;13.97;12.53;;;22.00;99.90;;;;;;4936473;29;20406;-61
2021/07/22 07:01:38;;;;;;;16.00;13.90;;;21.90;99.90;;;;;;4936350;29;20958;-62
2021/07/22 07:04:04;;;;;;;13.57;12.27;;;21.90;99.90;;;;;;4936523;29;20539;-61
2021/07/22 07:06:32;;;;;;;16.87;14.50;;;21.90;99.90;;;;;;4936707;29;20186;-62
2021/07/22 07:08:58;;;;;;;18.27;14.77;;;21.70;99.90;;;;;;4936065;29;20193;-61
2021/07/22 07:11:23;;;;;;;19.73;15.03;;;21.80;99.90;;;;;;4936831;29;20494;-61
2021/07/22 07:13:49;;;;;;;14.57;13.00;;;21.70;99.90;;;;;;4936135;29;20281;-62
2021/07/22 07:16:15;;;;;;;15.20;13.03;;;21.70;99.90;;;;;;4936627;29;20198;-62
2021/07/22 07:18:40;;;;;;;15.13;12.47;;;21.80;99.90;;;;;;4936165;29;20552;-62
2021/07/22 07:21:06;;;;;;;17.50;14.10;;;22.00;99.90;;;;;;4935630;29;20632;-61
2021/07/22 07:23:32;;;;;;;16.40;13.53;;;22.00;99.90;;;;;;4948823;29;20559;-61
2021/07/22 07:25:58;;;;;;;17.63;14.30;;;22.10;99.90;;;;;;4955552;29;20544;-62
2021/07/22 07:28:24;;;;;;;22.40;14.87;;;22.10;99.90;;;;;;4955913;29;20413;-62
2021/07/22 07:30:50;;;;;;;15.57;13.63;;;22.10;99.90;;;;;;4953351;28;20206;-62
2021/07/22 07:33:16;;;;;;;13.80;12.27;;;22.20;99.90;;;;;;4935696;29;20496;-62
2021/07/22 07:35:42;;;;;;;16.10;13.53;;;22.20;99.90;;;;;;4935940;29;20621;-62
2021/07/22 07:38:08;;;;;;;13.63;12.23;;;22.20;99.90;;;;;;4935985;29;20230;-62
2021/07/22 07:40:33;;;;;;;16.50;14.23;;;22.20;99.90;;;;;;4936056;29;20179;-62
2021/07/22 07:42:59;;;;;;;17.40;14.27;;;22.10;99.90;;;;;;4939248;29;20229;-62
2021/07/22 07:45:25;;;;;;;16.57;14.60;;;22.10;99.90;;;;;;4955203;29;20192;-62
2021/07/22 07:47:51;;;;;;;16.57;14.07;;;22.30;99.90;;;;;;4955306;29;20176;-62
2021/07/22 07:50:17;;;;;;;14.77;12.00;;;22.50;99.90;;;;;;4954156;29;20178;-62
2021/07/22 07:52:43;;;;;;;15.70;13.10;;;22.60;99.90;;;;;;4954810;29;20468;-61
2021/07/22 07:55:09;;;;;;;17.67;13.80;;;22.70;99.90;;;;;;4955068;29;20174;-62
2021/07/22 07:57:35;;;;;;;14.13;12.37;;;22.60;99.90;;;;;;4954951;29;20906;-63
2021/07/22 08:00:01;;;;;;;16.60;13.40;;;22.40;99.90;;;;;;4954961;29;20406;-63
2021/07/22 08:02:26;;;;;;;13.83;11.50;;;22.50;99.90;;;;;;4954711;29;20210;-64
2021/07/22 08:04:55;;;;;;;14.97;12.53;;;22.90;99.90;;;;;;4954569;29;20694;-63
2021/07/22 08:07:20;;;;;;;13.90;12.03;;;22.90;99.90;;;;;;4954841;29;20186;-63
2021/07/22 08:09:47;;;;;;;15.70;11.93;;;22.90;99.90;;;;;;4954891;29;20428;-62
2021/07/22 08:12:13;;;;;;;13.17;11.77;;;23.10;99.90;;;;;;4954943;29;20256;-62
2021/07/22 08:14:39;;;;;;;16.67;12.20;;;23.30;99.90;;;;;;4955067;29;20409;-62
2021/07/22 08:17:05;;;;;;;13.60;11.90;;;23.30;99.90;;;;;;4955407;29;20898;-62
2021/07/22 08:19:31;;;;;;;13.87;11.40;;;23.40;99.90;;;;;;4953434;29;20170;-61
2021/07/22 08:21:57;;;;;;;15.60;10.87;;;23.30;99.90;;;;;;4954591;29;20429;-63
2021/07/22 08:24:22;;;;;;;12.03;10.70;;;23.20;99.90;;;;;;4954787;29;20409;-62
2021/07/22 08:26:48;;;;;;;11.50;9.57;;;23.30;99.90;;;;;;4954059;29;20185;-61
2021/07/22 08:29:14;;;;;;;13.07;11.50;;;23.40;99.90;;;;;;4954861;29;20701;-63
2021/07/22 08:31:39;;;;;;;11.93;10.10;;;23.50;99.90;;;;;;4954877;29;20206;-61
2021/07/22 08:34:05;;;;;;;12.20;9.50;;;23.30;99.90;;;;;;4954666;29;20216;-62
2021/07/22 08:36:30;;;;;;;12.80;10.27;;;23.50;99.90;;;;;;4954912;29;20266;-62
2021/07/22 08:38:56;;;;;;;10.43;9.43;;;23.50;99.90;;;;;;4954689;29;20198;-61
2021/07/22 08:41:22;;;;;;;12.40;9.30;;;23.50;99.90;;;;;;4954625;29;20748;-63
2021/07/22 08:43:51;;;;;;;10.83;9.50;;;23.70;99.90;;;;;;4954686;29;20558;-63
2021/07/22 08:46:18;;;;;;;10.47;9.37;;;23.90;99.90;;;;;;4954976;29;20265;-62
2021/07/22 08:48:44;;;;;;;10.60;9.50;;;23.90;99.90;;;;;;4953491;29;20436;-63
2021/07/22 08:51:10;;;;;;;10.83;9.33;;;24.00;99.90;;;;;;4954488;29;20796;-62
2021/07/22 08:53:36;;;;;;;9.63;8.73;;;24.30;99.90;;;;;;4954385;28;20465;-63
2021/07/22 08:56:05;;;;;;;16.90;9.60;;;24.50;99.90;;;;;;4958110;29;20228;-65
2021/07/22 08:58:31;;;;;;;10.60;8.23;;;24.50;99.90;;;;;;4957600;29;20416;-62
2021/07/22 09:01:00;;;;;;;10.50;9.40;;;24.50;99.90;;;;;;4956432;29;20931;-62
2021/07/22 09:03:26;;;;;;;9.80;8.80;;;24.60;99.90;;;;;;4957822;29;20321;-62
2021/07/22 09:05:52;;;;;;;9.47;8.67;;;24.40;99.90;;;;;;4959341;29;20464;-62
2021/07/22 09:08:18;;;;;;;10.50;8.60;;;24.50;99.90;;;;;;4957472;29;20171;-63
2021/07/22 09:11:05;;;;;;;12.73;10.40;;;24.50;99.90;;;;;;4957757;29;20225;-63
2021/07/22 09:13:31;;;;;;;9.77;8.87;;;24.50;99.90;;;;;;4957443;28;20985;-61
2021/07/22 09:15:56;;;;;;;9.83;8.83;;;24.40;99.90;;;;;;4957291;29;20402;-63
2021/07/22 09:18:36;;;;;;;12.93;9.33;;;24.50;99.90;;;;;;4957754;29;20245;-63
2021/07/22 09:21:39;;;;;;;9.03;8.23;;;24.60;99.90;;;;;;4957760;29;20183;-62
2021/07/22 09:24:05;;;;;;;10.53;9.33;;;24.80;99.90;;;;;;4917020;29;20462;-63
2021/07/22 09:26:32;;;;;;;12.27;8.73;;;24.80;99.20;;;;;;4948171;29;20508;-63
2021/07/22 09:29:05;;;;;;;8.17;7.37;;;24.80;99.10;;;;;;4957201;29;20281;-63
2021/07/22 09:31:31;;;;;;;10.20;8.60;;;25.20;99.30;;;;;;4957360;29;20429;-63
2021/07/22 09:33:57;;;;;;;9.10;7.77;;;25.10;97.70;;;;;;4956413;29;20989;-63
2021/07/22 09:36:31;;;;;;;8.97;7.37;;;25.30;98.20;;;;;;4959784;28;20193;-62
2021/07/22 09:39:23;;;;;;;9.30;7.97;;;25.40;98.40;;;;;;4957190;29;20169;-62
2021/07/22 09:42:03;;;;;;;8.80;8.00;;;25.40;97.20;;;;;;4957129;29;20542;-63
2021/07/22 09:44:30;;;;;;;9.50;8.60;;;25.70;97.60;;;;;;4955592;29;20957;-63
2021/07/22 09:46:57;;;;;;;8.60;7.80;;;25.80;96.80;;;;;;4956898;29;20410;-62
2021/07/22 09:49:41;;;;;;;9.07;8.27;;;25.70;95.80;;;;;;4956831;29;20410;-62
2021/07/22 09:52:21;;;;;;;9.53;8.27;;;25.70;96.30;;;;;;4955537;29;20445;-63
2021/07/22 09:54:47;;;;;;;9.47;8.50;;;25.90;95.80;;;;;;4957021;29;20418;-62
2021/07/22 09:57:17;;;;;;;12.20;8.10;;;26.00;96.60;;;;;;4957189;29;20984;-63
2021/07/22 09:59:45;;;;;;;7.87;7.13;;;26.10;95.00;;;;;;4955135;29;20170;-64
2021/07/22 10:02:24;;;;;;;8.67;7.30;;;26.00;94.70;;;;;;4956400;29;20918;-62
2021/07/22 10:05:22;;;;;;;8.57;7.63;;;26.20;95.80;;;;;;4955998;28;20390;-62
2021/07/22 10:07:51;;;;;;;9.70;7.33;;;26.10;95.70;;;;;;4948826;29;20418;-63
2021/07/22 10:10:17;;;;;;;8.37;7.50;;;26.00;95.10;;;;;;4958003;29;20402;-62
2021/07/22 10:12:57;;;;;;;7.77;7.07;;;25.90;95.70;;;;;;4956197;29;20520;-62
2021/07/22 10:15:27;;;;;;;7.90;7.20;;;26.20;95.50;;;;;;4955345;28;20417;-62
2021/07/22 10:18:00;;;;;;;10.13;7.63;;;26.50;95.50;;;;;;4956054;29;20913;-64
2021/07/22 10:20:29;;;;;;;9.40;8.60;;;26.40;94.30;;;;;;4956619;29;20394;-62
2021/07/22 10:22:56;;;;;;;8.97;8.10;;;26.70;94.90;;;;;;4956251;29;21005;-62
2021/07/22 10:25:22;;;;;;;9.57;8.53;;;26.60;94.30;;;;;;4956189;29;20822;-62
2021/07/22 10:27:48;;;;;;;8.40;7.60;;;26.60;94.90;;;;;;4956217;29;20449;-62
2021/07/22 10:30:15;;;;;;;7.87;7.07;;;26.50;93.50;;;;;;4950555;29;20174;-62
2021/07/22 10:32:50;;;;;;;8.27;7.47;;;26.70;93.70;;;;;;4954315;28;20206;-62
2021/07/22 10:35:23;;;;;;;8.60;7.23;;;26.90;94.00;;;;;;4955811;28;20420;-62
2021/07/22 10:38:24;;;;;;;8.90;7.70;;;27.00;94.50;;;;;;4936108;29;20632;-61
2021/07/22 10:40:57;;;;;;;8.30;7.60;;;26.90;93.70;;;;;;4916905;29;20409;-62
2021/07/22 10:43:42;;;;;;;9.43;7.90;;;27.00;94.10;;;;;;4944683;29;20449;-62
2021/07/22 10:46:09;;;;;;;9.37;8.50;;;27.30;93.50;;;;;;4956136;29;20404;-62
2021/07/22 10:48:35;;;;;;;9.40;8.40;;;27.10;92.50;;;;;;4955813;29;20476;-62
2021/07/22 10:51:06;;;;;;;10.40;9.40;;;26.90;94.10;;;;;;4955811;29;20449;-62
2021/07/22 10:53:41;;;;;;;9.13;8.23;;;27.10;93.10;;;;;;4954490;29;20457;-62
2021/07/22 10:56:22;;;;;;;9.83;8.33;;;27.00;93.70;;;;;;4955930;29;20394;-62
2021/07/22 10:58:50;;;;;;;7.83;7.23;;;27.00;94.10;;;;;;4956108;29;20800;-62
2021/07/22 11:01:41;;;;;;;10.07;9.17;;;26.90;93.90;;;;;;4948271;29;20407;-62
2021/07/22 11:04:06;;;;;;;10.90;7.80;;;27.20;93.30;;;;;;4954554;29;20440;-63
2021/07/22 11:06:57;;;;;;;8.83;8.03;;;27.40;93.30;;;;;;4955811;29;20409;-62
2021/07/22 11:09:47;;;;;;;9.00;8.10;;;27.80;94.90;;;;;;4954472;28;20663;-61
2021/07/22 11:12:39;;;;;;;7.87;7.17;;;27.90;93.50;;;;;;4955379;29;20425;-63
2021/07/22 11:15:09;;;;;;;9.10;7.87;;;28.20;92.30;;;;;;4955611;29;20416;-62
2021/07/22 11:17:36;;;;;;;9.30;8.10;;;28.10;92.10;;;;;;4955158;28;20429;-62
2021/07/22 11:20:19;;;;;;;9.43;8.50;;;28.30;93.60;;;;;;4954489;28;20417;-62
2021/07/22 11:22:50;;;;;;;8.10;7.40;;;28.30;92.00;;;;;;4955437;29;20417;-62
2021/07/22 11:25:17;;;;;;;8.60;7.77;;;28.30;91.40;;;;;;4955222;29;20397;-62
2021/07/22 11:27:44;;;;;;;8.33;7.63;;;28.60;91.80;;;;;;4955182;29;20406;-62
2021/07/22 11:30:18;;;;;;;9.50;8.70;;;28.80;91.50;;;;;;4955588;29;20406;-62
2021/07/22 11:32:44;;;;;;;8.73;7.80;;;29.50;90.20;;;;;;4953878;29;20453;-61
2021/07/22 11:35:10;;;;;;;9.17;7.80;;;30.60;86.80;;;;;;4954989;29;20409;-60
2021/07/22 11:37:36;;;;;;;8.90;8.00;;;31.70;82.90;;;;;;4954771;28;20204;-62
2021/07/22 11:40:12;;;;;;;11.00;7.43;;;32.30;79.60;;;;;;4969676;28;20409;-62
2021/07/22 11:42:50;;;;;;;8.77;7.97;;;33.60;75.70;;;;;;4952326;29;20527;-61
2021/07/22 11:45:16;;;;;;;11.20;8.27;;;34.50;72.10;;;;;;4955219;29;20429;-61
2021/07/22 11:47:42;;;;;;;10.23;8.30;;;35.40;68.50;;;;;;4955033;29;20516;-60
2021/07/22 11:50:09;;;;;;;8.60;7.70;;;35.80;65.00;;;;;;4955348;29;20586;-61
2021/07/22 11:52:35;;;;;;;10.93;7.63;;;34.90;65.80;;;;;;4953907;29;20224;-62
2021/07/22 11:55:12;;;;;;;8.53;7.73;;;35.40;65.30;;;;;;4955344;29;20402;-61
2021/07/22 11:57:42;;;;;;;7.87;7.20;;;36.10;63.80;;;;;;4956178;28;20501;-62
2021/07/22 12:00:20;;;;;;;9.07;8.20;;;34.70;63.10;;;;;;4955288;29;20404;-62
2021/07/22 12:02:52;;;;;;;10.13;9.13;;;34.70;64.70;;;;;;4955279;28;21081;-61
2021/07/22 12:05:26;;;;;;;9.47;7.90;;;35.10;62.90;;;;;;4954524;29;20432;-61
2021/07/22 12:07:53;;;;;;;8.23;7.00;;;35.70;62.00;;;;;;4955135;29;20410;-61
2021/07/22 12:10:29;;;;;;;10.37;7.80;;;35.90;60.70;;;;;;4955368;29;20410;-61
2021/07/22 12:13:08;;;;;;;9.77;7.70;;;36.60;58.20;;;;;;4955100;29;20464;-65
2021/07/22 12:15:37;;;;;;;9.37;8.47;;;36.60;58.60;;;;;;4955182;29;20436;-61
2021/07/22 12:18:04;;;;;;;10.57;8.73;;;36.20;59.10;;;;;;4953857;29;20418;-61
2021/07/22 12:20:29;;;;;;;8.97;8.17;;;36.50;57.00;;;;;;4954616;29;20914;-61
2021/07/22 12:22:55;;;;;;;9.23;7.53;;;36.40;57.60;;;;;;4954787;29;20432;-61
2021/07/22 12:25:21;;;;;;;8.87;7.97;;;36.30;57.60;;;;;;4954871;29;20162;-62
2021/07/22 12:27:46;;;;;;;11.43;8.97;;;36.30;57.10;;;;;;4953814;28;20209;-62
2021/07/22 12:30:30;;;;;;;9.13;8.17;;;36.10;56.00;;;;;;4958425;29;20249;-61
2021/07/22 12:33:06;;;;;;;9.10;8.20;;;35.50;56.90;;;;;;4958512;29;20564;-62
2021/07/22 12:35:40;;;;;;;8.93;8.03;;;35.30;58.00;;;;;;4958414;29;20397;-62
2021/07/22 12:38:07;;;;;;;9.37;8.57;;;36.10;56.10;;;;;;4958773;29;20377;-62
2021/07/22 12:40:35;;;;;;;10.60;8.23;;;37.50;56.20;;;;;;4958592;29;20753;-60
2021/07/22 12:43:01;;;;;;;9.30;8.40;;;38.60;53.70;;;;;;4956808;29;20620;-62